sensor_id;sensor_type;location;lat;lon;timestamp;P1;durP1;ratioP1;P2;durP2;ratioP2
60243;SDS011;46106;51.468;5.814;2023-04-29T00:00:45;144.32;;;52.22;;
60243;SDS011;46106;51.468;5.814;2023-04-29T00:03:14;145.07;;;52.75;;
60243;SDS011;46106;51.468;5.814;2023-04-29T00:05:39;135.85;;;47.85;;
60243;SDS011;46106;51.468;5.814;2023-04-29T00:08:05;130.63;;;44.47;;
60243;SDS011;46106;51.468;5.814;2023-04-29T00:10:30;132.50;;;44.28;;
60243;SDS011;46106;51.468;5.814;2023-04-29T00:12:56;110.03;;;42.28;;
60243;SDS011;46106;51.468;5.814;2023-04-29T00:15:22;101.57;;;41.72;;
60243;SDS011;46106;51.468;5.814;2023-04-29T00:17:47;115.20;;;42.58;;
60243;SDS011;46106;51.468;5.814;2023-04-29T00:20:13;110.35;;;42.95;;
60243;SDS011;46106;51.468;5.814;2023-04-29T00:22:38;110.93;;;41.20;;
60243;SDS011;46106;51.468;5.814;2023-04-29T00:25:04;123.30;;;43.88;;
60243;SDS011;46106;51.468;5.814;2023-04-29T00:27:30;117.28;;;44.28;;
60243;SDS011;46106;51.468;5.814;2023-04-29T00:29:57;122.30;;;40.05;;
60243;SDS011;46106;51.468;5.814;2023-04-29T00:32:22;117.10;;;39.50;;
60243;SDS011;46106;51.468;5.814;2023-04-29T00:34:48;112.45;;;39.20;;
60243;SDS011;46106;51.468;5.814;2023-04-29T00:37:15;95.55;;;34.88;;
60243;SDS011;46106;51.468;5.814;2023-04-29T00:39:41;112.07;;;37.75;;
60243;SDS011;46106;51.468;5.814;2023-04-29T00:42:06;98.78;;;37.40;;
60243;SDS011;46106;51.468;5.814;2023-04-29T00:44:35;104.57;;;35.75;;
60243;SDS011;46106;51.468;5.814;2023-04-29T00:47:01;99.35;;;35.03;;
60243;SDS011;46106;51.468;5.814;2023-04-29T00:49:26;86.63;;;34.72;;
60243;SDS011;46106;51.468;5.814;2023-04-29T00:51:52;83.63;;;34.53;;
60243;SDS011;46106;51.468;5.814;2023-04-29T00:54:20;85.07;;;34.05;;
60243;SDS011;46106;51.468;5.814;2023-04-29T00:56:46;91.10;;;35.78;;
60243;SDS011;46106;51.468;5.814;2023-04-29T00:59:12;80.93;;;32.20;;
60243;SDS011;46106;51.468;5.814;2023-04-29T01:01:39;93.40;;;35.00;;
60243;SDS011;46106;51.468;5.814;2023-04-29T01:04:05;91.25;;;35.75;;
60243;SDS011;46106;51.468;5.814;2023-04-29T01:10:02;89.75;;;34.88;;
60243;SDS011;46106;51.468;5.814;2023-04-29T01:18:26;80.65;;;33.53;;
60243;SDS011;46106;51.468;5.814;2023-04-29T01:20:56;81.85;;;33.13;;
60243;SDS011;46106;51.468;5.814;2023-04-29T01:23:29;71.00;;;29.67;;
60243;SDS011;46106;51.468;5.814;2023-04-29T01:25:55;69.87;;;31.50;;
60243;SDS011;46106;51.468;5.814;2023-04-29T01:28:34;67.50;;;30.25;;
60243;SDS011;46106;51.468;5.814;2023-04-29T01:34:06;69.03;;;30.45;;
60243;SDS011;46106;51.468;5.814;2023-04-29T01:42:00;69.43;;;29.73;;
60243;SDS011;46106;51.468;5.814;2023-04-29T01:44:35;77.60;;;31.83;;
60243;SDS011;46106;51.468;5.814;2023-04-29T01:47:02;67.93;;;29.70;;
60243;SDS011;46106;51.468;5.814;2023-04-29T01:49:29;70.28;;;30.83;;
60243;SDS011;46106;51.468;5.814;2023-04-29T01:51:55;72.90;;;29.85;;
60243;SDS011;46106;51.468;5.814;2023-04-29T01:54:21;75.72;;;30.60;;
60243;SDS011;46106;51.468;5.814;2023-04-29T01:56:49;79.13;;;31.73;;
60243;SDS011;46106;51.468;5.814;2023-04-29T01:59:16;72.13;;;32.42;;
60243;SDS011;46106;51.468;5.814;2023-04-29T02:01:41;74.85;;;33.80;;
60243;SDS011;46106;51.468;5.814;2023-04-29T02:04:06;74.28;;;34.03;;
60243;SDS011;46106;51.468;5.814;2023-04-29T02:06:35;79.25;;;33.90;;
60243;SDS011;46106;51.468;5.814;2023-04-29T02:09:01;83.97;;;36.92;;
60243;SDS011;46106;51.468;5.814;2023-04-29T02:11:26;91.38;;;37.63;;
60243;SDS011;46106;51.468;5.814;2023-04-29T02:13:51;92.43;;;39.83;;
60243;SDS011;46106;51.468;5.814;2023-04-29T02:16:18;100.00;;;40.05;;
60243;SDS011;46106;51.468;5.814;2023-04-29T02:18:44;88.18;;;39.75;;
60243;SDS011;46106;51.468;5.814;2023-04-29T02:21:10;95.82;;;40.45;;
60243;SDS011;46106;51.468;5.814;2023-04-29T02:23:39;105.85;;;41.08;;
60243;SDS011;46106;51.468;5.814;2023-04-29T02:26:04;86.75;;;37.80;;
60243;SDS011;46106;51.468;5.814;2023-04-29T02:28:31;99.13;;;39.17;;
60243;SDS011;46106;51.468;5.814;2023-04-29T02:30:58;89.90;;;38.22;;
60243;SDS011;46106;51.468;5.814;2023-04-29T02:33:23;98.28;;;39.50;;
60243;SDS011;46106;51.468;5.814;2023-04-29T02:35:49;99.97;;;38.95;;
60243;SDS011;46106;51.468;5.814;2023-04-29T02:38:14;103.75;;;38.13;;
60243;SDS011;46106;51.468;5.814;2023-04-29T02:40:40;103.55;;;39.15;;
60243;SDS011;46106;51.468;5.814;2023-04-29T02:43:10;96.68;;;36.78;;
60243;SDS011;46106;51.468;5.814;2023-04-29T02:45:38;88.85;;;33.42;;
60243;SDS011;46106;51.468;5.814;2023-04-29T02:48:04;91.90;;;34.08;;
60243;SDS011;46106;51.468;5.814;2023-04-29T02:50:31;87.03;;;34.75;;
60243;SDS011;46106;51.468;5.814;2023-04-29T02:52:57;95.15;;;34.63;;
60243;SDS011;46106;51.468;5.814;2023-04-29T02:55:23;86.65;;;34.83;;
60243;SDS011;46106;51.468;5.814;2023-04-29T02:57:48;90.88;;;35.30;;
60243;SDS011;46106;51.468;5.814;2023-04-29T03:00:14;87.70;;;34.28;;
60243;SDS011;46106;51.468;5.814;2023-04-29T03:02:39;92.50;;;34.70;;
60243;SDS011;46106;51.468;5.814;2023-04-29T03:05:04;94.13;;;36.63;;
60243;SDS011;46106;51.468;5.814;2023-04-29T03:07:30;97.15;;;36.22;;
60243;SDS011;46106;51.468;5.814;2023-04-29T03:09:56;88.70;;;33.28;;
60243;SDS011;46106;51.468;5.814;2023-04-29T03:12:22;87.63;;;33.15;;
60243;SDS011;46106;51.468;5.814;2023-04-29T03:14:47;94.10;;;33.92;;
60243;SDS011;46106;51.468;5.814;2023-04-29T03:17:13;92.85;;;34.80;;
60243;SDS011;46106;51.468;5.814;2023-04-29T03:19:39;92.78;;;34.85;;
60243;SDS011;46106;51.468;5.814;2023-04-29T03:22:05;93.78;;;34.25;;
60243;SDS011;46106;51.468;5.814;2023-04-29T03:24:32;89.28;;;34.30;;
60243;SDS011;46106;51.468;5.814;2023-04-29T03:26:58;88.40;;;34.95;;
60243;SDS011;46106;51.468;5.814;2023-04-29T03:29:24;97.35;;;34.08;;
60243;SDS011;46106;51.468;5.814;2023-04-29T03:31:51;91.22;;;33.83;;
60243;SDS011;46106;51.468;5.814;2023-04-29T03:34:18;84.63;;;32.47;;
60243;SDS011;46106;51.468;5.814;2023-04-29T03:36:43;92.93;;;35.13;;
60243;SDS011;46106;51.468;5.814;2023-04-29T03:39:09;94.00;;;34.50;;
60243;SDS011;46106;51.468;5.814;2023-04-29T03:41:35;103.20;;;35.40;;
60243;SDS011;46106;51.468;5.814;2023-04-29T03:44:01;89.93;;;34.60;;
60243;SDS011;46106;51.468;5.814;2023-04-29T03:46:26;97.50;;;34.53;;
60243;SDS011;46106;51.468;5.814;2023-04-29T03:48:52;101.63;;;36.00;;
60243;SDS011;46106;51.468;5.814;2023-04-29T03:51:20;99.68;;;34.40;;
60243;SDS011;46106;51.468;5.814;2023-04-29T03:53:49;116.20;;;35.47;;
60243;SDS011;46106;51.468;5.814;2023-04-29T03:56:16;96.95;;;35.20;;
60243;SDS011;46106;51.468;5.814;2023-04-29T03:58:41;107.30;;;37.17;;
60243;SDS011;46106;51.468;5.814;2023-04-29T04:01:10;101.50;;;36.40;;
60243;SDS011;46106;51.468;5.814;2023-04-29T04:03:39;105.07;;;35.13;;
60243;SDS011;46106;51.468;5.814;2023-04-29T04:06:04;97.07;;;34.15;;
60243;SDS011;46106;51.468;5.814;2023-04-29T04:08:29;90.05;;;34.15;;
60243;SDS011;46106;51.468;5.814;2023-04-29T04:10:55;95.47;;;32.42;;
60243;SDS011;46106;51.468;5.814;2023-04-29T04:13:27;93.63;;;32.38;;
60243;SDS011;46106;51.468;5.814;2023-04-29T04:15:55;87.07;;;31.52;;
60243;SDS011;46106;51.468;5.814;2023-04-29T04:18:21;98.85;;;33.35;;
60243;SDS011;46106;51.468;5.814;2023-04-29T04:20:46;82.80;;;31.58;;
60243;SDS011;46106;51.468;5.814;2023-04-29T04:23:12;78.20;;;29.73;;
60243;SDS011;46106;51.468;5.814;2023-04-29T04:25:38;89.20;;;31.30;;
60243;SDS011;46106;51.468;5.814;2023-04-29T04:28:08;86.93;;;31.25;;
60243;SDS011;46106;51.468;5.814;2023-04-29T04:30:34;77.70;;;29.75;;
60243;SDS011;46106;51.468;5.814;2023-04-29T04:33:02;93.32;;;30.63;;
60243;SDS011;46106;51.468;5.814;2023-04-29T04:35:28;93.45;;;31.58;;
60243;SDS011;46106;51.468;5.814;2023-04-29T04:37:53;84.38;;;31.15;;
60243;SDS011;46106;51.468;5.814;2023-04-29T04:40:19;84.20;;;30.13;;
60243;SDS011;46106;51.468;5.814;2023-04-29T04:42:45;81.47;;;31.48;;
60243;SDS011;46106;51.468;5.814;2023-04-29T04:45:10;83.05;;;29.63;;
60243;SDS011;46106;51.468;5.814;2023-04-29T04:47:39;102.68;;;32.75;;
60243;SDS011;46106;51.468;5.814;2023-04-29T04:50:05;86.78;;;32.22;;
60243;SDS011;46106;51.468;5.814;2023-04-29T04:52:35;96.63;;;32.63;;
60243;SDS011;46106;51.468;5.814;2023-04-29T04:55:00;82.80;;;29.55;;
60243;SDS011;46106;51.468;5.814;2023-04-29T04:57:26;80.70;;;32.05;;
60243;SDS011;46106;51.468;5.814;2023-04-29T04:59:51;89.53;;;32.05;;
60243;SDS011;46106;51.468;5.814;2023-04-29T05:02:17;83.00;;;31.83;;
60243;SDS011;46106;51.468;5.814;2023-04-29T05:04:42;91.40;;;32.35;;
60243;SDS011;46106;51.468;5.814;2023-04-29T05:07:08;83.68;;;31.95;;
60243;SDS011;46106;51.468;5.814;2023-04-29T05:09:34;86.25;;;32.78;;
60243;SDS011;46106;51.468;5.814;2023-04-29T05:12:03;89.43;;;34.25;;
60243;SDS011;46106;51.468;5.814;2023-04-29T05:14:28;81.20;;;32.90;;
60243;SDS011;46106;51.468;5.814;2023-04-29T05:16:57;92.78;;;33.88;;
60243;SDS011;46106;51.468;5.814;2023-04-29T05:19:24;82.00;;;32.20;;
60243;SDS011;46106;51.468;5.814;2023-04-29T05:21:49;94.45;;;33.08;;
60243;SDS011;46106;51.468;5.814;2023-04-29T05:24:15;81.88;;;32.72;;
60243;SDS011;46106;51.468;5.814;2023-04-29T05:26:41;81.80;;;32.30;;
60243;SDS011;46106;51.468;5.814;2023-04-29T05:29:08;92.57;;;33.10;;
60243;SDS011;46106;51.468;5.814;2023-04-29T05:31:34;81.80;;;33.92;;
60243;SDS011;46106;51.468;5.814;2023-04-29T05:34:00;81.72;;;31.30;;
60243;SDS011;46106;51.468;5.814;2023-04-29T05:36:26;95.05;;;33.20;;
60243;SDS011;46106;51.468;5.814;2023-04-29T05:38:52;82.07;;;33.22;;
60243;SDS011;46106;51.468;5.814;2023-04-29T05:41:17;77.85;;;30.45;;
60243;SDS011;46106;51.468;5.814;2023-04-29T05:43:43;76.53;;;31.45;;
60243;SDS011;46106;51.468;5.814;2023-04-29T05:46:08;84.35;;;30.90;;
60243;SDS011;46106;51.468;5.814;2023-04-29T05:48:34;76.22;;;31.50;;
60243;SDS011;46106;51.468;5.814;2023-04-29T05:50:59;81.22;;;30.13;;
60243;SDS011;46106;51.468;5.814;2023-04-29T05:53:28;75.38;;;30.63;;
60243;SDS011;46106;51.468;5.814;2023-04-29T05:55:53;81.47;;;30.50;;
60243;SDS011;46106;51.468;5.814;2023-04-29T05:58:18;69.47;;;28.77;;
60243;SDS011;46106;51.468;5.814;2023-04-29T06:00:44;70.30;;;30.13;;
60243;SDS011;46106;51.468;5.814;2023-04-29T06:03:09;74.40;;;28.75;;
60243;SDS011;46106;51.468;5.814;2023-04-29T06:05:36;64.00;;;28.00;;
60243;SDS011;46106;51.468;5.814;2023-04-29T06:08:02;81.22;;;31.13;;
60243;SDS011;46106;51.468;5.814;2023-04-29T06:10:28;71.75;;;28.85;;
60243;SDS011;46106;51.468;5.814;2023-04-29T06:12:54;62.10;;;28.17;;
60243;SDS011;46106;51.468;5.814;2023-04-29T06:15:19;67.35;;;28.02;;
60243;SDS011;46106;51.468;5.814;2023-04-29T06:17:45;65.13;;;28.27;;
60243;SDS011;46106;51.468;5.814;2023-04-29T06:20:11;57.70;;;26.27;;
60243;SDS011;46106;51.468;5.814;2023-04-29T06:22:37;62.67;;;27.52;;
60243;SDS011;46106;51.468;5.814;2023-04-29T06:25:02;68.13;;;29.25;;
60243;SDS011;46106;51.468;5.814;2023-04-29T06:27:28;67.60;;;29.13;;
60243;SDS011;46106;51.468;5.814;2023-04-29T06:29:53;59.00;;;27.45;;
60243;SDS011;46106;51.468;5.814;2023-04-29T06:32:19;63.22;;;28.27;;
60243;SDS011;46106;51.468;5.814;2023-04-29T06:34:44;64.53;;;27.60;;
60243;SDS011;46106;51.468;5.814;2023-04-29T06:37:10;59.75;;;28.05;;
60243;SDS011;46106;51.468;5.814;2023-04-29T06:39:36;65.75;;;27.42;;
60243;SDS011;46106;51.468;5.814;2023-04-29T06:42:01;57.25;;;27.63;;
60243;SDS011;46106;51.468;5.814;2023-04-29T06:44:27;67.50;;;28.35;;
60243;SDS011;46106;51.468;5.814;2023-04-29T06:46:53;58.47;;;26.27;;
60243;SDS011;46106;51.468;5.814;2023-04-29T06:49:18;61.60;;;26.25;;
60243;SDS011;46106;51.468;5.814;2023-04-29T06:51:46;57.00;;;25.55;;
60243;SDS011;46106;51.468;5.814;2023-04-29T06:54:11;61.13;;;26.25;;
60243;SDS011;46106;51.468;5.814;2023-04-29T06:56:37;58.90;;;26.83;;
60243;SDS011;46106;51.468;5.814;2023-04-29T06:59:02;55.92;;;25.75;;
60243;SDS011;46106;51.468;5.814;2023-04-29T07:01:28;55.20;;;25.30;;
60243;SDS011;46106;51.468;5.814;2023-04-29T07:03:54;49.53;;;25.02;;
60243;SDS011;46106;51.468;5.814;2023-04-29T07:06:19;48.30;;;24.58;;
60243;SDS011;46106;51.468;5.814;2023-04-29T07:08:45;46.10;;;24.50;;
60243;SDS011;46106;51.468;5.814;2023-04-29T07:11:10;52.83;;;24.73;;
60243;SDS011;46106;51.468;5.814;2023-04-29T07:13:38;57.83;;;25.38;;
60243;SDS011;46106;51.468;5.814;2023-04-29T07:16:04;52.90;;;25.30;;
60243;SDS011;46106;51.468;5.814;2023-04-29T07:18:30;47.00;;;24.05;;
60243;SDS011;46106;51.468;5.814;2023-04-29T07:20:59;47.03;;;24.38;;
60243;SDS011;46106;51.468;5.814;2023-04-29T07:23:25;51.53;;;24.50;;
60243;SDS011;46106;51.468;5.814;2023-04-29T07:25:51;62.10;;;25.60;;
60243;SDS011;46106;51.468;5.814;2023-04-29T07:28:16;59.53;;;25.73;;
60243;SDS011;46106;51.468;5.814;2023-04-29T07:30:42;58.05;;;26.20;;
60243;SDS011;46106;51.468;5.814;2023-04-29T07:33:08;50.88;;;25.50;;
60243;SDS011;46106;51.468;5.814;2023-04-29T07:35:34;56.92;;;24.95;;
60243;SDS011;46106;51.468;5.814;2023-04-29T07:37:59;49.33;;;23.90;;
60243;SDS011;46106;51.468;5.814;2023-04-29T07:40:28;58.08;;;26.83;;
60243;SDS011;46106;51.468;5.814;2023-04-29T07:42:53;51.35;;;25.75;;
60243;SDS011;46106;51.468;5.814;2023-04-29T07:45:19;47.78;;;25.63;;
60243;SDS011;46106;51.468;5.814;2023-04-29T07:47:44;49.00;;;25.20;;
60243;SDS011;46106;51.468;5.814;2023-04-29T07:50:10;55.50;;;24.85;;
60243;SDS011;46106;51.468;5.814;2023-04-29T07:52:35;50.65;;;24.05;;
60243;SDS011;46106;51.468;5.814;2023-04-29T07:55:01;44.83;;;22.00;;
60243;SDS011;46106;51.468;5.814;2023-04-29T07:57:26;42.15;;;22.02;;
60243;SDS011;46106;51.468;5.814;2023-04-29T07:59:52;39.63;;;22.45;;
60243;SDS011;46106;51.468;5.814;2023-04-29T08:02:18;46.90;;;23.23;;
60243;SDS011;46106;51.468;5.814;2023-04-29T08:04:43;42.75;;;22.80;;
60243;SDS011;46106;51.468;5.814;2023-04-29T08:07:09;44.08;;;24.42;;
60243;SDS011;46106;51.468;5.814;2023-04-29T08:09:34;39.00;;;21.40;;
60243;SDS011;46106;51.468;5.814;2023-04-29T08:12:00;39.10;;;23.50;;
60243;SDS011;46106;51.468;5.814;2023-04-29T08:14:26;38.47;;;20.98;;
60243;SDS011;46106;51.468;5.814;2023-04-29T08:16:51;41.83;;;23.27;;
60243;SDS011;46106;51.468;5.814;2023-04-29T08:19:18;43.60;;;22.83;;
60243;SDS011;46106;51.468;5.814;2023-04-29T08:21:44;40.22;;;21.58;;
60243;SDS011;46106;51.468;5.814;2023-04-29T08:24:10;41.15;;;20.60;;
60243;SDS011;46106;51.468;5.814;2023-04-29T08:26:36;38.33;;;21.83;;
60243;SDS011;46106;51.468;5.814;2023-04-29T08:29:01;38.25;;;20.77;;
60243;SDS011;46106;51.468;5.814;2023-04-29T08:31:27;37.58;;;21.48;;
60243;SDS011;46106;51.468;5.814;2023-04-29T08:33:52;37.63;;;21.40;;
60243;SDS011;46106;51.468;5.814;2023-04-29T08:36:18;42.22;;;22.13;;
60243;SDS011;46106;51.468;5.814;2023-04-29T08:38:43;36.72;;;21.00;;
60243;SDS011;46106;51.468;5.814;2023-04-29T08:41:09;42.75;;;21.33;;
60243;SDS011;46106;51.468;5.814;2023-04-29T08:43:35;40.60;;;20.73;;
60243;SDS011;46106;51.468;5.814;2023-04-29T08:46:01;35.22;;;20.63;;
60243;SDS011;46106;51.468;5.814;2023-04-29T08:48:32;35.30;;;19.05;;
60243;SDS011;46106;51.468;5.814;2023-04-29T08:50:58;36.17;;;20.65;;
60243;SDS011;46106;51.468;5.814;2023-04-29T08:53:25;32.60;;;17.73;;
60243;SDS011;46106;51.468;5.814;2023-04-29T08:55:51;36.65;;;20.30;;
60243;SDS011;46106;51.468;5.814;2023-04-29T08:58:18;40.85;;;19.35;;
60243;SDS011;46106;51.468;5.814;2023-04-29T09:00:44;32.55;;;18.73;;
60243;SDS011;46106;51.468;5.814;2023-04-29T09:03:26;36.97;;;20.35;;
60243;SDS011;46106;51.468;5.814;2023-04-29T09:05:59;33.50;;;19.65;;
60243;SDS011;46106;51.468;5.814;2023-04-29T09:08:26;36.35;;;20.02;;
60243;SDS011;46106;51.468;5.814;2023-04-29T09:10:51;34.17;;;20.02;;
60243;SDS011;46106;51.468;5.814;2023-04-29T09:13:27;37.08;;;18.60;;
60243;SDS011;46106;51.468;5.814;2023-04-29T09:15:54;35.67;;;19.02;;
60243;SDS011;46106;51.468;5.814;2023-04-29T09:21:16;34.67;;;18.02;;
60243;SDS011;46106;51.468;5.814;2023-04-29T09:23:43;45.00;;;18.65;;
60243;SDS011;46106;51.468;5.814;2023-04-29T09:26:10;28.67;;;16.83;;
60243;SDS011;46106;51.468;5.814;2023-04-29T09:28:36;30.52;;;17.77;;
60243;SDS011;46106;51.468;5.814;2023-04-29T09:31:05;30.88;;;17.30;;
60243;SDS011;46106;51.468;5.814;2023-04-29T09:33:51;32.28;;;17.52;;
60243;SDS011;46106;51.468;5.814;2023-04-29T09:39:05;32.05;;;17.85;;
60243;SDS011;46106;51.468;5.814;2023-04-29T09:41:37;28.85;;;18.10;;
60243;SDS011;46106;51.468;5.814;2023-04-29T09:44:07;32.45;;;17.70;;
60243;SDS011;46106;51.468;5.814;2023-04-29T09:46:33;28.00;;;16.58;;
60243;SDS011;46106;51.468;5.814;2023-04-29T09:49:00;28.35;;;15.80;;
60243;SDS011;46106;51.468;5.814;2023-04-29T09:51:53;35.85;;;16.23;;
60243;SDS011;46106;51.468;5.814;2023-04-29T09:54:29;27.30;;;16.63;;
60243;SDS011;46106;51.468;5.814;2023-04-29T09:56:57;37.63;;;21.90;;
60243;SDS011;46106;51.468;5.814;2023-04-29T09:59:23;31.20;;;19.77;;
60243;SDS011;46106;51.468;5.814;2023-04-29T10:01:56;33.28;;;17.30;;
60243;SDS011;46106;51.468;5.814;2023-04-29T10:04:26;31.65;;;18.52;;
60243;SDS011;46106;51.468;5.814;2023-04-29T10:06:52;37.45;;;17.20;;
60243;SDS011;46106;51.468;5.814;2023-04-29T10:09:20;31.52;;;16.65;;
60243;SDS011;46106;51.468;5.814;2023-04-29T10:11:52;28.15;;;15.55;;
60243;SDS011;46106;51.468;5.814;2023-04-29T10:14:22;25.75;;;15.38;;
60243;SDS011;46106;51.468;5.814;2023-04-29T10:17:05;30.35;;;16.35;;
60243;SDS011;46106;51.468;5.814;2023-04-29T10:19:40;32.30;;;16.17;;
60243;SDS011;46106;51.468;5.814;2023-04-29T10:22:18;29.73;;;15.70;;
60243;SDS011;46106;51.468;5.814;2023-04-29T10:24:51;24.13;;;14.70;;
60243;SDS011;46106;51.468;5.814;2023-04-29T10:27:19;30.77;;;13.80;;
60243;SDS011;46106;51.468;5.814;2023-04-29T10:29:47;31.15;;;15.60;;
60243;SDS011;46106;51.468;5.814;2023-04-29T10:32:16;32.08;;;15.57;;
60243;SDS011;46106;51.468;5.814;2023-04-29T10:34:43;24.13;;;13.52;;
60243;SDS011;46106;51.468;5.814;2023-04-29T10:37:12;30.83;;;15.45;;
60243;SDS011;46106;51.468;5.814;2023-04-29T10:42:41;33.00;;;14.90;;
60243;SDS011;46106;51.468;5.814;2023-04-29T10:51:12;24.35;;;12.93;;
60243;SDS011;46106;51.468;5.814;2023-04-29T10:53:16;24.25;;;12.68;;
60243;SDS011;46106;51.468;5.814;2023-04-29T10:55:46;32.03;;;12.70;;
60243;SDS011;46106;51.468;5.814;2023-04-29T11:01:00;23.92;;;13.52;;
60243;SDS011;46106;51.468;5.814;2023-04-29T11:06:23;20.65;;;13.35;;
60243;SDS011;46106;51.468;5.814;2023-04-29T11:09:03;22.35;;;11.38;;
60243;SDS011;46106;51.468;5.814;2023-04-29T11:14:21;14.38;;;9.77;;
60243;SDS011;46106;51.468;5.814;2023-04-29T11:16:55;23.52;;;13.95;;
60243;SDS011;46106;51.468;5.814;2023-04-29T11:19:29;22.13;;;11.73;;
60243;SDS011;46106;51.468;5.814;2023-04-29T11:22:03;18.40;;;11.48;;
60243;SDS011;46106;51.468;5.814;2023-04-29T11:24:57;19.63;;;12.23;;
60243;SDS011;46106;51.468;5.814;2023-04-29T11:27:30;28.58;;;13.10;;
60243;SDS011;46106;51.468;5.814;2023-04-29T11:29:57;19.67;;;11.88;;
60243;SDS011;46106;51.468;5.814;2023-04-29T11:32:27;23.23;;;11.68;;
60243;SDS011;46106;51.468;5.814;2023-04-29T11:35:07;24.92;;;12.35;;
60243;SDS011;46106;51.468;5.814;2023-04-29T11:37:37;17.45;;;11.20;;
60243;SDS011;46106;51.468;5.814;2023-04-29T11:40:04;19.67;;;11.07;;
60243;SDS011;46106;51.468;5.814;2023-04-29T11:42:32;40.72;;;11.20;;
60243;SDS011;46106;51.468;5.814;2023-04-29T11:45:15;20.52;;;12.07;;
60243;SDS011;46106;51.468;5.814;2023-04-29T11:47:43;16.83;;;10.35;;
60243;SDS011;46106;51.468;5.814;2023-04-29T11:50:12;20.85;;;11.13;;
60243;SDS011;46106;51.468;5.814;2023-04-29T11:52:44;20.50;;;11.27;;
60243;SDS011;46106;51.468;5.814;2023-04-29T11:55:11;23.52;;;10.15;;
60243;SDS011;46106;51.468;5.814;2023-04-29T11:57:38;27.15;;;11.35;;
60243;SDS011;46106;51.468;5.814;2023-04-29T12:00:07;17.15;;;10.35;;
60243;SDS011;46106;51.468;5.814;2023-04-29T12:02:34;21.05;;;10.50;;
60243;SDS011;46106;51.468;5.814;2023-04-29T12:05:06;19.17;;;11.10;;
60243;SDS011;46106;51.468;5.814;2023-04-29T12:07:32;23.27;;;11.00;;
60243;SDS011;46106;51.468;5.814;2023-04-29T12:09:59;18.05;;;10.05;;
60243;SDS011;46106;51.468;5.814;2023-04-29T12:12:25;18.73;;;10.60;;
60243;SDS011;46106;51.468;5.814;2023-04-29T12:14:55;19.60;;;9.85;;
60243;SDS011;46106;51.468;5.814;2023-04-29T12:17:21;22.20;;;10.40;;
60243;SDS011;46106;51.468;5.814;2023-04-29T12:19:47;16.85;;;9.77;;
60243;SDS011;46106;51.468;5.814;2023-04-29T12:22:13;16.58;;;10.43;;
60243;SDS011;46106;51.468;5.814;2023-04-29T12:24:38;17.23;;;10.27;;
60243;SDS011;46106;51.468;5.814;2023-04-29T12:27:08;19.67;;;10.98;;
60243;SDS011;46106;51.468;5.814;2023-04-29T12:29:35;21.10;;;10.95;;
60243;SDS011;46106;51.468;5.814;2023-04-29T12:32:01;18.70;;;11.73;;
60243;SDS011;46106;51.468;5.814;2023-04-29T12:34:27;20.23;;;10.23;;
60243;SDS011;46106;51.468;5.814;2023-04-29T12:36:54;20.75;;;11.02;;
60243;SDS011;46106;51.468;5.814;2023-04-29T12:39:21;18.98;;;10.73;;
60243;SDS011;46106;51.468;5.814;2023-04-29T12:41:47;14.82;;;9.93;;
60243;SDS011;46106;51.468;5.814;2023-04-29T12:44:12;17.85;;;9.60;;
60243;SDS011;46106;51.468;5.814;2023-04-29T12:46:38;21.90;;;10.13;;
60243;SDS011;46106;51.468;5.814;2023-04-29T12:49:05;19.45;;;8.85;;
60243;SDS011;46106;51.468;5.814;2023-04-29T12:51:32;17.67;;;9.70;;
60243;SDS011;46106;51.468;5.814;2023-04-29T12:54:01;16.90;;;9.88;;
60243;SDS011;46106;51.468;5.814;2023-04-29T12:56:31;16.80;;;9.38;;
60243;SDS011;46106;51.468;5.814;2023-04-29T12:59:03;14.40;;;8.88;;
60243;SDS011;46106;51.468;5.814;2023-04-29T13:01:32;12.32;;;8.27;;
60243;SDS011;46106;51.468;5.814;2023-04-29T13:03:58;19.58;;;9.63;;
60243;SDS011;46106;51.468;5.814;2023-04-29T13:06:23;24.52;;;10.15;;
60243;SDS011;46106;51.468;5.814;2023-04-29T13:08:49;16.60;;;9.43;;
60243;SDS011;46106;51.468;5.814;2023-04-29T13:11:16;17.48;;;10.38;;
60243;SDS011;46106;51.468;5.814;2023-04-29T13:13:41;16.63;;;9.65;;
60243;SDS011;46106;51.468;5.814;2023-04-29T13:16:10;19.60;;;10.02;;
60243;SDS011;46106;51.468;5.814;2023-04-29T13:18:35;16.55;;;9.50;;
60243;SDS011;46106;51.468;5.814;2023-04-29T13:21:01;19.23;;;9.52;;
60243;SDS011;46106;51.468;5.814;2023-04-29T13:23:27;19.33;;;9.52;;
60243;SDS011;46106;51.468;5.814;2023-04-29T13:25:52;14.85;;;8.82;;
60243;SDS011;46106;51.468;5.814;2023-04-29T13:28:18;15.25;;;9.65;;
60243;SDS011;46106;51.468;5.814;2023-04-29T13:30:43;15.00;;;9.68;;
60243;SDS011;46106;51.468;5.814;2023-04-29T13:33:08;16.35;;;9.13;;
60243;SDS011;46106;51.468;5.814;2023-04-29T13:35:34;16.48;;;8.80;;
60243;SDS011;46106;51.468;5.814;2023-04-29T13:38:00;17.40;;;9.65;;
60243;SDS011;46106;51.468;5.814;2023-04-29T13:40:26;18.52;;;8.95;;
60243;SDS011;46106;51.468;5.814;2023-04-29T13:42:52;13.95;;;9.23;;
60243;SDS011;46106;51.468;5.814;2023-04-29T13:45:17;16.45;;;8.68;;
60243;SDS011;46106;51.468;5.814;2023-04-29T13:47:43;22.73;;;9.20;;
60243;SDS011;46106;51.468;5.814;2023-04-29T13:50:08;14.80;;;9.10;;
60243;SDS011;46106;51.468;5.814;2023-04-29T13:52:34;13.23;;;8.20;;
60243;SDS011;46106;51.468;5.814;2023-04-29T13:55:00;14.02;;;9.00;;
60243;SDS011;46106;51.468;5.814;2023-04-29T13:57:26;19.80;;;9.55;;
60243;SDS011;46106;51.468;5.814;2023-04-29T13:59:51;14.75;;;8.70;;
60243;SDS011;46106;51.468;5.814;2023-04-29T14:02:19;14.43;;;8.48;;
60243;SDS011;46106;51.468;5.814;2023-04-29T14:04:45;11.55;;;7.05;;
60243;SDS011;46106;51.468;5.814;2023-04-29T14:07:11;16.67;;;8.30;;
60243;SDS011;46106;51.468;5.814;2023-04-29T14:09:37;13.82;;;8.60;;
60243;SDS011;46106;51.468;5.814;2023-04-29T14:12:04;13.98;;;7.60;;
60243;SDS011;46106;51.468;5.814;2023-04-29T14:14:29;11.45;;;7.28;;
60243;SDS011;46106;51.468;5.814;2023-04-29T14:16:55;13.77;;;8.18;;
60243;SDS011;46106;51.468;5.814;2023-04-29T14:19:20;11.85;;;6.90;;
60243;SDS011;46106;51.468;5.814;2023-04-29T14:21:46;14.35;;;6.85;;
60243;SDS011;46106;51.468;5.814;2023-04-29T14:24:11;16.98;;;7.50;;
60243;SDS011;46106;51.468;5.814;2023-04-29T14:26:37;14.15;;;7.55;;
60243;SDS011;46106;51.468;5.814;2023-04-29T14:29:02;10.77;;;7.30;;
60243;SDS011;46106;51.468;5.814;2023-04-29T14:31:28;12.27;;;7.40;;
60243;SDS011;46106;51.468;5.814;2023-04-29T14:33:56;15.30;;;7.82;;
60243;SDS011;46106;51.468;5.814;2023-04-29T14:36:22;12.43;;;7.88;;
60243;SDS011;46106;51.468;5.814;2023-04-29T14:38:48;15.52;;;9.20;;
60243;SDS011;46106;51.468;5.814;2023-04-29T14:41:14;17.77;;;9.13;;
60243;SDS011;46106;51.468;5.814;2023-04-29T14:43:40;12.30;;;7.60;;
60243;SDS011;46106;51.468;5.814;2023-04-29T14:46:06;16.73;;;7.10;;
60243;SDS011;46106;51.468;5.814;2023-04-29T14:48:35;11.45;;;7.47;;
60243;SDS011;46106;51.468;5.814;2023-04-29T14:51:01;11.32;;;7.03;;
60243;SDS011;46106;51.468;5.814;2023-04-29T14:53:26;14.07;;;7.07;;
60243;SDS011;46106;51.468;5.814;2023-04-29T14:55:54;11.05;;;7.63;;
60243;SDS011;46106;51.468;5.814;2023-04-29T14:58:20;12.23;;;7.55;;
60243;SDS011;46106;51.468;5.814;2023-04-29T15:00:45;11.35;;;6.53;;
60243;SDS011;46106;51.468;5.814;2023-04-29T15:03:14;9.68;;;6.50;;